sensor_id;sensor_type;location;lat;lon;timestamp;P1;durP1;ratioP1;P2;durP2;ratioP2
7074;SDS011;3578;51.568;6.932;2022-07-29T00:02:22;7.27;;;2.13;;
7074;SDS011;3578;51.568;6.932;2022-07-29T00:04:49;5.80;;;2.20;;
7074;SDS011;3578;51.568;6.932;2022-07-29T00:07:17;6.63;;;2.10;;
7074;SDS011;3578;51.568;6.932;2022-07-29T00:09:44;2.00;;;1.77;;
7074;SDS011;3578;51.568;6.932;2022-07-29T00:12:11;6.00;;;1.97;;
7074;SDS011;3578;51.568;6.932;2022-07-29T00:14:38;5.73;;;1.97;;
7074;SDS011;3578;51.568;6.932;2022-07-29T00:17:05;6.23;;;2.30;;
7074;SDS011;3578;51.568;6.932;2022-07-29T00:19:32;5.97;;;2.17;;
7074;SDS011;3578;51.568;6.932;2022-07-29T00:21:59;3.23;;;2.03;;
7074;SDS011;3578;51.568;6.932;2022-07-29T00:24:28;4.40;;;1.67;;
7074;SDS011;3578;51.568;6.932;2022-07-29T00:26:55;6.53;;;1.73;;
7074;SDS011;3578;51.568;6.932;2022-07-29T00:29:22;3.93;;;1.50;;
7074;SDS011;3578;51.568;6.932;2022-07-29T00:31:49;5.13;;;1.80;;
7074;SDS011;3578;51.568;6.932;2022-07-29T00:34:17;5.47;;;2.00;;
7074;SDS011;3578;51.568;6.932;2022-07-29T00:37:02;6.83;;;1.63;;
7074;SDS011;3578;51.568;6.932;2022-07-29T00:39:30;4.70;;;1.67;;
7074;SDS011;3578;51.568;6.932;2022-07-29T00:41:57;4.40;;;1.20;;
7074;SDS011;3578;51.568;6.932;2022-07-29T00:44:24;7.50;;;1.90;;
7074;SDS011;3578;51.568;6.932;2022-07-29T00:46:51;10.43;;;2.10;;
7074;SDS011;3578;51.568;6.932;2022-07-29T00:49:18;3.07;;;1.67;;
7074;SDS011;3578;51.568;6.932;2022-07-29T00:51:45;2.20;;;1.60;;
7074;SDS011;3578;51.568;6.932;2022-07-29T00:54:14;3.53;;;1.20;;
7074;SDS011;3578;51.568;6.932;2022-07-29T00:56:42;4.00;;;2.17;;
7074;SDS011;3578;51.568;6.932;2022-07-29T00:59:10;5.07;;;1.87;;
7074;SDS011;3578;51.568;6.932;2022-07-29T01:01:37;4.23;;;1.77;;
7074;SDS011;3578;51.568;6.932;2022-07-29T01:04:04;6.00;;;2.10;;
7074;SDS011;3578;51.568;6.932;2022-07-29T01:06:32;3.53;;;1.60;;
7074;SDS011;3578;51.568;6.932;2022-07-29T01:09:00;15.60;;;2.40;;
7074;SDS011;3578;51.568;6.932;2022-07-29T01:11:28;2.00;;;1.50;;
7074;SDS011;3578;51.568;6.932;2022-07-29T01:13:56;8.63;;;1.80;;
7074;SDS011;3578;51.568;6.932;2022-07-29T01:16:24;10.50;;;2.00;;
7074;SDS011;3578;51.568;6.932;2022-07-29T01:18:58;4.10;;;1.33;;
7074;SDS011;3578;51.568;6.932;2022-07-29T01:21:43;9.13;;;1.80;;
7074;SDS011;3578;51.568;6.932;2022-07-29T01:27:32;2.70;;;1.60;;
7074;SDS011;3578;51.568;6.932;2022-07-29T01:30:28;6.63;;;2.40;;
7074;SDS011;3578;51.568;6.932;2022-07-29T01:32:58;18.13;;;2.63;;
7074;SDS011;3578;51.568;6.932;2022-07-29T01:35:33;7.83;;;2.23;;
7074;SDS011;3578;51.568;6.932;2022-07-29T01:38:05;3.53;;;2.20;;
7074;SDS011;3578;51.568;6.932;2022-07-29T01:40:40;4.97;;;1.73;;
7074;SDS011;3578;51.568;6.932;2022-07-29T01:43:14;3.40;;;1.83;;
7074;SDS011;3578;51.568;6.932;2022-07-29T01:45:45;5.90;;;1.73;;
7074;SDS011;3578;51.568;6.932;2022-07-29T01:48:18;3.13;;;1.80;;
7074;SDS011;3578;51.568;6.932;2022-07-29T01:50:50;3.87;;;1.93;;
7074;SDS011;3578;51.568;6.932;2022-07-29T01:53:30;3.63;;;1.73;;
7074;SDS011;3578;51.568;6.932;2022-07-29T01:56:00;7.30;;;1.77;;
7074;SDS011;3578;51.568;6.932;2022-07-29T01:58:29;4.93;;;1.50;;
7074;SDS011;3578;51.568;6.932;2022-07-29T02:01:00;8.83;;;2.00;;
7074;SDS011;3578;51.568;6.932;2022-07-29T02:03:28;5.10;;;1.77;;
7074;SDS011;3578;51.568;6.932;2022-07-29T02:05:59;2.43;;;1.70;;
7074;SDS011;3578;51.568;6.932;2022-07-29T02:08:29;12.30;;;2.67;;
7074;SDS011;3578;51.568;6.932;2022-07-29T02:10:59;10.30;;;2.30;;
7074;SDS011;3578;51.568;6.932;2022-07-29T02:13:29;6.33;;;2.03;;
7074;SDS011;3578;51.568;6.932;2022-07-29T02:15:59;6.07;;;2.40;;
7074;SDS011;3578;51.568;6.932;2022-07-29T02:18:28;10.53;;;2.00;;
7074;SDS011;3578;51.568;6.932;2022-07-29T02:20:58;4.93;;;1.73;;
7074;SDS011;3578;51.568;6.932;2022-07-29T02:23:27;7.53;;;1.73;;
7074;SDS011;3578;51.568;6.932;2022-07-29T02:25:55;4.57;;;1.60;;
7074;SDS011;3578;51.568;6.932;2022-07-29T02:28:24;2.40;;;1.60;;
7074;SDS011;3578;51.568;6.932;2022-07-29T02:30:54;1.70;;;1.60;;
7074;SDS011;3578;51.568;6.932;2022-07-29T02:33:25;4.70;;;1.63;;
7074;SDS011;3578;51.568;6.932;2022-07-29T02:35:55;3.93;;;1.73;;
7074;SDS011;3578;51.568;6.932;2022-07-29T02:38:24;1.87;;;1.67;;
7074;SDS011;3578;51.568;6.932;2022-07-29T02:41:12;2.00;;;1.80;;
7074;SDS011;3578;51.568;6.932;2022-07-29T02:43:43;2.20;;;1.50;;
7074;SDS011;3578;51.568;6.932;2022-07-29T02:46:15;4.20;;;1.50;;
7074;SDS011;3578;51.568;6.932;2022-07-29T02:49:01;1.53;;;1.37;;
7074;SDS011;3578;51.568;6.932;2022-07-29T02:51:37;1.70;;;1.60;;
7074;SDS011;3578;51.568;6.932;2022-07-29T02:54:11;2.70;;;1.57;;
7074;SDS011;3578;51.568;6.932;2022-07-29T02:56:50;4.40;;;1.73;;
7074;SDS011;3578;51.568;6.932;2022-07-29T02:59:21;1.30;;;1.20;;
7074;SDS011;3578;51.568;6.932;2022-07-29T03:01:54;3.00;;;1.70;;
7074;SDS011;3578;51.568;6.932;2022-07-29T03:04:25;5.13;;;1.70;;
7074;SDS011;3578;51.568;6.932;2022-07-29T03:06:54;6.27;;;2.00;;
7074;SDS011;3578;51.568;6.932;2022-07-29T03:09:24;2.03;;;1.70;;
7074;SDS011;3578;51.568;6.932;2022-07-29T03:11:53;3.53;;;1.70;;
7074;SDS011;3578;51.568;6.932;2022-07-29T03:14:22;2.80;;;1.67;;
7074;SDS011;3578;51.568;6.932;2022-07-29T03:16:50;4.20;;;1.33;;
7074;SDS011;3578;51.568;6.932;2022-07-29T03:19:18;5.50;;;1.70;;
7074;SDS011;3578;51.568;6.932;2022-07-29T03:21:47;4.37;;;1.40;;
7074;SDS011;3578;51.568;6.932;2022-07-29T03:24:28;2.90;;;1.43;;
7074;SDS011;3578;51.568;6.932;2022-07-29T03:26:58;3.53;;;2.00;;
7074;SDS011;3578;51.568;6.932;2022-07-29T03:29:26;3.80;;;1.60;;
7074;SDS011;3578;51.568;6.932;2022-07-29T03:31:53;1.50;;;1.40;;
7074;SDS011;3578;51.568;6.932;2022-07-29T03:34:21;2.43;;;1.37;;
7074;SDS011;3578;51.568;6.932;2022-07-29T03:36:49;7.47;;;2.10;;
7074;SDS011;3578;51.568;6.932;2022-07-29T03:39:17;3.60;;;1.93;;
7074;SDS011;3578;51.568;6.932;2022-07-29T03:41:47;2.30;;;1.40;;
7074;SDS011;3578;51.568;6.932;2022-07-29T03:44:18;3.97;;;1.80;;
7074;SDS011;3578;51.568;6.932;2022-07-29T03:46:46;2.23;;;1.20;;
7074;SDS011;3578;51.568;6.932;2022-07-29T03:49:16;3.30;;;1.40;;
7074;SDS011;3578;51.568;6.932;2022-07-29T03:51:46;1.80;;;1.60;;
7074;SDS011;3578;51.568;6.932;2022-07-29T03:54:14;4.63;;;1.90;;
7074;SDS011;3578;51.568;6.932;2022-07-29T03:56:42;5.23;;;1.67;;
7074;SDS011;3578;51.568;6.932;2022-07-29T03:59:15;2.73;;;1.70;;
7074;SDS011;3578;51.568;6.932;2022-07-29T04:01:44;1.80;;;1.50;;
7074;SDS011;3578;51.568;6.932;2022-07-29T04:04:12;13.17;;;2.23;;
7074;SDS011;3578;51.568;6.932;2022-07-29T04:06:40;3.33;;;1.77;;
7074;SDS011;3578;51.568;6.932;2022-07-29T04:09:08;1.80;;;1.70;;
7074;SDS011;3578;51.568;6.932;2022-07-29T04:11:37;1.67;;;1.53;;
7074;SDS011;3578;51.568;6.932;2022-07-29T04:14:05;1.83;;;1.50;;
7074;SDS011;3578;51.568;6.932;2022-07-29T04:16:33;1.47;;;1.30;;
7074;SDS011;3578;51.568;6.932;2022-07-29T04:19:00;1.83;;;1.20;;
7074;SDS011;3578;51.568;6.932;2022-07-29T04:21:27;3.40;;;1.67;;
7074;SDS011;3578;51.568;6.932;2022-07-29T04:23:54;3.60;;;1.27;;
7074;SDS011;3578;51.568;6.932;2022-07-29T04:26:21;1.73;;;1.30;;
7074;SDS011;3578;51.568;6.932;2022-07-29T04:28:49;1.97;;;1.80;;
7074;SDS011;3578;51.568;6.932;2022-07-29T04:31:16;3.37;;;1.57;;
7074;SDS011;3578;51.568;6.932;2022-07-29T04:33:43;6.93;;;2.03;;
7074;SDS011;3578;51.568;6.932;2022-07-29T04:36:10;4.20;;;1.90;;
7074;SDS011;3578;51.568;6.932;2022-07-29T04:38:38;3.80;;;1.97;;
7074;SDS011;3578;51.568;6.932;2022-07-29T04:41:05;5.90;;;2.43;;
7074;SDS011;3578;51.568;6.932;2022-07-29T04:43:33;18.33;;;3.87;;
7074;SDS011;3578;51.568;6.932;2022-07-29T04:46:02;8.07;;;3.50;;
7074;SDS011;3578;51.568;6.932;2022-07-29T04:48:30;11.10;;;3.63;;
7074;SDS011;3578;51.568;6.932;2022-07-29T04:50:57;12.50;;;4.00;;
7074;SDS011;3578;51.568;6.932;2022-07-29T04:53:24;6.80;;;3.80;;
7074;SDS011;3578;51.568;6.932;2022-07-29T04:55:51;10.90;;;3.30;;
7074;SDS011;3578;51.568;6.932;2022-07-29T04:58:19;7.87;;;3.70;;
7074;SDS011;3578;51.568;6.932;2022-07-29T05:00:48;9.37;;;3.50;;
7074;SDS011;3578;51.568;6.932;2022-07-29T05:03:16;6.80;;;3.93;;
7074;SDS011;3578;51.568;6.932;2022-07-29T05:05:43;21.23;;;4.40;;
7074;SDS011;3578;51.568;6.932;2022-07-29T05:08:10;22.90;;;6.20;;
7074;SDS011;3578;51.568;6.932;2022-07-29T05:10:37;15.97;;;5.47;;
7074;SDS011;3578;51.568;6.932;2022-07-29T05:13:04;16.73;;;5.70;;
7074;SDS011;3578;51.568;6.932;2022-07-29T05:15:32;8.90;;;4.93;;
7074;SDS011;3578;51.568;6.932;2022-07-29T05:18:01;11.20;;;5.60;;
7074;SDS011;3578;51.568;6.932;2022-07-29T05:20:30;9.70;;;3.93;;
7074;SDS011;3578;51.568;6.932;2022-07-29T05:22:59;11.27;;;4.93;;
7074;SDS011;3578;51.568;6.932;2022-07-29T05:25:27;8.10;;;3.90;;
7074;SDS011;3578;51.568;6.932;2022-07-29T05:27:55;10.33;;;4.80;;
7074;SDS011;3578;51.568;6.932;2022-07-29T05:30:23;7.00;;;3.60;;
7074;SDS011;3578;51.568;6.932;2022-07-29T05:32:50;13.50;;;4.23;;
7074;SDS011;3578;51.568;6.932;2022-07-29T05:35:17;13.47;;;3.70;;
7074;SDS011;3578;51.568;6.932;2022-07-29T05:37:45;3.73;;;3.03;;
7074;SDS011;3578;51.568;6.932;2022-07-29T05:40:12;7.57;;;4.10;;
7074;SDS011;3578;51.568;6.932;2022-07-29T05:42:40;9.43;;;3.40;;
7074;SDS011;3578;51.568;6.932;2022-07-29T05:45:07;5.33;;;3.47;;
7074;SDS011;3578;51.568;6.932;2022-07-29T05:47:35;4.60;;;3.27;;
7074;SDS011;3578;51.568;6.932;2022-07-29T05:50:02;6.30;;;3.90;;
7074;SDS011;3578;51.568;6.932;2022-07-29T05:52:30;5.57;;;3.60;;
7074;SDS011;3578;51.568;6.932;2022-07-29T05:54:59;8.00;;;3.60;;
7074;SDS011;3578;51.568;6.932;2022-07-29T05:57:29;3.67;;;3.33;;
7074;SDS011;3578;51.568;6.932;2022-07-29T05:59:56;5.43;;;3.30;;
7074;SDS011;3578;51.568;6.932;2022-07-29T06:02:24;7.13;;;4.30;;
7074;SDS011;3578;51.568;6.932;2022-07-29T06:04:51;10.87;;;3.80;;
7074;SDS011;3578;51.568;6.932;2022-07-29T06:07:18;8.87;;;4.00;;
7074;SDS011;3578;51.568;6.932;2022-07-29T06:09:45;5.63;;;3.73;;
7074;SDS011;3578;51.568;6.932;2022-07-29T06:12:14;4.20;;;3.63;;
7074;SDS011;3578;51.568;6.932;2022-07-29T06:14:41;4.17;;;3.77;;
7074;SDS011;3578;51.568;6.932;2022-07-29T06:17:08;4.90;;;3.67;;
7074;SDS011;3578;51.568;6.932;2022-07-29T06:19:36;3.60;;;3.30;;
7074;SDS011;3578;51.568;6.932;2022-07-29T06:22:03;4.27;;;3.60;;
7074;SDS011;3578;51.568;6.932;2022-07-29T06:24:30;8.47;;;3.60;;
7074;SDS011;3578;51.568;6.932;2022-07-29T06:26:57;3.93;;;3.57;;
7074;SDS011;3578;51.568;6.932;2022-07-29T06:29:26;5.00;;;3.47;;
7074;SDS011;3578;51.568;6.932;2022-07-29T06:31:53;9.33;;;4.47;;
7074;SDS011;3578;51.568;6.932;2022-07-29T06:34:23;7.97;;;3.47;;
7074;SDS011;3578;51.568;6.932;2022-07-29T06:36:50;3.80;;;3.20;;
7074;SDS011;3578;51.568;6.932;2022-07-29T06:39:18;4.73;;;3.50;;
7074;SDS011;3578;51.568;6.932;2022-07-29T06:41:46;6.43;;;3.63;;
7074;SDS011;3578;51.568;6.932;2022-07-29T06:44:15;7.03;;;3.77;;
7074;SDS011;3578;51.568;6.932;2022-07-29T06:46:44;5.03;;;4.40;;
7074;SDS011;3578;51.568;6.932;2022-07-29T06:49:14;4.77;;;4.30;;
7074;SDS011;3578;51.568;6.932;2022-07-29T06:51:41;9.47;;;4.27;;
7074;SDS011;3578;51.568;6.932;2022-07-29T06:54:08;4.47;;;3.97;;
7074;SDS011;3578;51.568;6.932;2022-07-29T06:56:35;5.00;;;3.87;;
7074;SDS011;3578;51.568;6.932;2022-07-29T06:59:03;4.60;;;4.20;;
7074;SDS011;3578;51.568;6.932;2022-07-29T07:01:30;4.13;;;3.83;;
7074;SDS011;3578;51.568;6.932;2022-07-29T07:03:59;4.23;;;3.83;;
7074;SDS011;3578;51.568;6.932;2022-07-29T07:06:26;6.50;;;3.87;;
7074;SDS011;3578;51.568;6.932;2022-07-29T07:08:53;4.57;;;4.27;;
7074;SDS011;3578;51.568;6.932;2022-07-29T07:11:20;3.63;;;3.33;;
7074;SDS011;3578;51.568;6.932;2022-07-29T07:13:47;5.90;;;4.10;;
7074;SDS011;3578;51.568;6.932;2022-07-29T07:16:14;6.10;;;4.30;;
7074;SDS011;3578;51.568;6.932;2022-07-29T07:18:42;9.87;;;4.67;;
7074;SDS011;3578;51.568;6.932;2022-07-29T07:21:11;6.20;;;4.47;;
7074;SDS011;3578;51.568;6.932;2022-07-29T07:23:38;8.03;;;4.70;;
7074;SDS011;3578;51.568;6.932;2022-07-29T07:26:05;6.30;;;4.43;;
7074;SDS011;3578;51.568;6.932;2022-07-29T07:28:32;6.37;;;4.30;;
7074;SDS011;3578;51.568;6.932;2022-07-29T07:30:59;7.93;;;4.60;;
7074;SDS011;3578;51.568;6.932;2022-07-29T07:33:26;6.00;;;5.00;;
7074;SDS011;3578;51.568;6.932;2022-07-29T07:35:53;8.90;;;5.10;;
7074;SDS011;3578;51.568;6.932;2022-07-29T07:38:22;7.47;;;4.83;;
7074;SDS011;3578;51.568;6.932;2022-07-29T07:40:49;8.83;;;5.50;;
7074;SDS011;3578;51.568;6.932;2022-07-29T07:43:16;7.17;;;4.27;;
7074;SDS011;3578;51.568;6.932;2022-07-29T07:45:43;6.00;;;5.13;;
7074;SDS011;3578;51.568;6.932;2022-07-29T07:48:10;5.50;;;5.00;;
7074;SDS011;3578;51.568;6.932;2022-07-29T07:50:37;5.80;;;4.53;;
7074;SDS011;3578;51.568;6.932;2022-07-29T07:53:04;6.07;;;4.70;;
7074;SDS011;3578;51.568;6.932;2022-07-29T07:55:33;9.97;;;4.53;;
7074;SDS011;3578;51.568;6.932;2022-07-29T07:58:05;5.20;;;4.80;;
7074;SDS011;3578;51.568;6.932;2022-07-29T08:00:32;7.43;;;4.90;;
7074;SDS011;3578;51.568;6.932;2022-07-29T08:02:59;6.10;;;4.97;;
7074;SDS011;3578;51.568;6.932;2022-07-29T08:05:26;7.70;;;4.80;;
7074;SDS011;3578;51.568;6.932;2022-07-29T08:07:54;6.03;;;5.40;;
7074;SDS011;3578;51.568;6.932;2022-07-29T08:10:21;5.70;;;5.10;;
7074;SDS011;3578;51.568;6.932;2022-07-29T08:13:03;6.77;;;5.17;;
7074;SDS011;3578;51.568;6.932;2022-07-29T08:15:31;6.73;;;5.10;;
7074;SDS011;3578;51.568;6.932;2022-07-29T08:17:59;8.03;;;5.20;;
7074;SDS011;3578;51.568;6.932;2022-07-29T08:20:27;7.07;;;5.37;;
7074;SDS011;3578;51.568;6.932;2022-07-29T08:22:54;4.97;;;4.37;;
7074;SDS011;3578;51.568;6.932;2022-07-29T08:25:22;6.10;;;4.83;;
7074;SDS011;3578;51.568;6.932;2022-07-29T08:27:49;6.37;;;4.50;;
7074;SDS011;3578;51.568;6.932;2022-07-29T08:30:17;6.20;;;4.40;;
7074;SDS011;3578;51.568;6.932;2022-07-29T08:32:44;6.27;;;4.83;;
7074;SDS011;3578;51.568;6.932;2022-07-29T08:35:13;4.90;;;4.40;;
7074;SDS011;3578;51.568;6.932;2022-07-29T08:37:40;4.87;;;4.53;;
7074;SDS011;3578;51.568;6.932;2022-07-29T08:40:08;5.00;;;3.83;;
7074;SDS011;3578;51.568;6.932;2022-07-29T08:42:36;5.80;;;4.60;;
7074;SDS011;3578;51.568;6.932;2022-07-29T08:45:04;5.50;;;4.10;;
7074;SDS011;3578;51.568;6.932;2022-07-29T08:47:34;7.77;;;5.10;;
7074;SDS011;3578;51.568;6.932;2022-07-29T08:50:04;5.93;;;4.70;;
7074;SDS011;3578;51.568;6.932;2022-07-29T08:52:34;6.03;;;5.20;;
7074;SDS011;3578;51.568;6.932;2022-07-29T08:55:04;7.23;;;4.80;;
7074;SDS011;3578;51.568;6.932;2022-07-29T08:57:33;5.33;;;4.60;;
7074;SDS011;3578;51.568;6.932;2022-07-29T09:00:02;11.03;;;4.87;;
7074;SDS011;3578;51.568;6.932;2022-07-29T09:02:35;6.20;;;5.27;;
7074;SDS011;3578;51.568;6.932;2022-07-29T09:05:11;7.40;;;5.07;;
7074;SDS011;3578;51.568;6.932;2022-07-29T09:07:38;4.83;;;4.40;;
7074;SDS011;3578;51.568;6.932;2022-07-29T09:10:08;5.90;;;5.30;;
7074;SDS011;3578;51.568;6.932;2022-07-29T09:12:35;8.23;;;5.73;;
7074;SDS011;3578;51.568;6.932;2022-07-29T09:15:03;6.10;;;5.13;;
7074;SDS011;3578;51.568;6.932;2022-07-29T09:17:41;7.87;;;5.20;;
7074;SDS011;3578;51.568;6.932;2022-07-29T09:20:10;10.03;;;5.70;;
7074;SDS011;3578;51.568;6.932;2022-07-29T09:22:39;8.20;;;5.23;;
7074;SDS011;3578;51.568;6.932;2022-07-29T09:25:07;9.20;;;5.00;;
7074;SDS011;3578;51.568;6.932;2022-07-29T09:27:36;13.07;;;5.60;;
7074;SDS011;3578;51.568;6.932;2022-07-29T09:30:04;11.63;;;5.97;;
7074;SDS011;3578;51.568;6.932;2022-07-29T09:32:53;9.30;;;5.23;;
7074;SDS011;3578;51.568;6.932;2022-07-29T09:35:25;6.70;;;4.90;;
7074;SDS011;3578;51.568;6.932;2022-07-29T09:37:54;12.97;;;5.30;;
7074;SDS011;3578;51.568;6.932;2022-07-29T09:40:22;11.97;;;6.00;;
7074;SDS011;3578;51.568;6.932;2022-07-29T09:42:51;8.03;;;4.83;;
7074;SDS011;3578;51.568;6.932;2022-07-29T09:45:28;9.47;;;5.53;;
7074;SDS011;3578;51.568;6.932;2022-07-29T09:47:59;27.30;;;6.57;;
7074;SDS011;3578;51.568;6.932;2022-07-29T09:50:39;5.40;;;4.50;;
7074;SDS011;3578;51.568;6.932;2022-07-29T09:53:08;8.30;;;4.60;;
7074;SDS011;3578;51.568;6.932;2022-07-29T09:55:46;10.43;;;5.00;;
7074;SDS011;3578;51.568;6.932;2022-07-29T09:58:15;10.10;;;4.70;;
7074;SDS011;3578;51.568;6.932;2022-07-29T10:00:43;6.73;;;4.50;;
7074;SDS011;3578;51.568;6.932;2022-07-29T10:03:13;7.90;;;4.27;;
7074;SDS011;3578;51.568;6.932;2022-07-29T10:05:42;5.73;;;3.60;;
7074;SDS011;3578;51.568;6.932;2022-07-29T10:08:10;8.50;;;3.47;;
7074;SDS011;3578;51.568;6.932;2022-07-29T10:10:38;5.33;;;3.53;;
7074;SDS011;3578;51.568;6.932;2022-07-29T10:13:08;5.13;;;3.57;;
7074;SDS011;3578;51.568;6.932;2022-07-29T10:15:37;7.77;;;4.37;;
7074;SDS011;3578;51.568;6.932;2022-07-29T10:18:08;7.07;;;3.90;;
7074;SDS011;3578;51.568;6.932;2022-07-29T10:20:38;5.97;;;4.23;;
7074;SDS011;3578;51.568;6.932;2022-07-29T10:23:06;5.47;;;3.30;;
7074;SDS011;3578;51.568;6.932;2022-07-29T10:25:33;7.70;;;3.87;;
7074;SDS011;3578;51.568;6.932;2022-07-29T10:28:00;6.87;;;4.10;;
7074;SDS011;3578;51.568;6.932;2022-07-29T10:30:27;4.20;;;3.90;;
7074;SDS011;3578;51.568;6.932;2022-07-29T10:32:58;9.80;;;4.50;;
7074;SDS011;3578;51.568;6.932;2022-07-29T10:35:46;5.93;;;4.57;;
7074;SDS011;3578;51.568;6.932;2022-07-29T10:38:42;10.47;;;4.33;;
7074;SDS011;3578;51.568;6.932;2022-07-29T10:41:25;5.10;;;4.10;;
7074;SDS011;3578;51.568;6.932;2022-07-29T10:44:08;10.20;;;4.30;;
7074;SDS011;3578;51.568;6.932;2022-07-29T10:46:41;9.43;;;4.57;;
7074;SDS011;3578;51.568;6.932;2022-07-29T10:49:09;7.00;;;4.10;;
7074;SDS011;3578;51.568;6.932;2022-07-29T10:51:56;5.43;;;4.80;;
7074;SDS011;3578;51.568;6.932;2022-07-29T10:54:36;5.80;;;4.90;;
7074;SDS011;3578;51.568;6.932;2022-07-29T10:57:23;9.80;;;4.53;;
7074;SDS011;3578;51.568;6.932;2022-07-29T11:02:55;6.57;;;4.07;;
7074;SDS011;3578;51.568;6.932;2022-07-29T11:05:23;7.20;;;3.90;;
7074;SDS011;3578;51.568;6.932;2022-07-29T11:10:48;4.43;;;4.00;;
7074;SDS011;3578;51.568;6.932;2022-07-29T11:16:13;9.50;;;3.40;;
7074;SDS011;3578;51.568;6.932;2022-07-29T11:21:47;6.00;;;3.20;;
7074;SDS011;3578;51.568;6.932;2022-07-29T11:24:17;7.10;;;4.10;;
7074;SDS011;3578;51.568;6.932;2022-07-29T11:29:40;6.17;;;3.00;;
7074;SDS011;3578;51.568;6.932;2022-07-29T11:32:18;11.57;;;3.53;;
7074;SDS011;3578;51.568;6.932;2022-07-29T11:34:47;5.60;;;4.10;;
7074;SDS011;3578;51.568;6.932;2022-07-29T11:37:19;4.70;;;3.10;;
7074;SDS011;3578;51.568;6.932;2022-07-29T11:42:41;6.90;;;3.63;;
7074;SDS011;3578;51.568;6.932;2022-07-29T11:45:13;3.47;;;3.13;;
7074;SDS011;3578;51.568;6.932;2022-07-29T11:47:47;9.30;;;3.30;;
7074;SDS011;3578;51.568;6.932;2022-07-29T11:50:18;5.63;;;3.20;;
7074;SDS011;3578;51.568;6.932;2022-07-29T11:53:05;6.63;;;3.23;;
7074;SDS011;3578;51.568;6.932;2022-07-29T11:55:40;4.60;;;3.17;;
7074;SDS011;3578;51.568;6.932;2022-07-29T11:58:08;5.43;;;3.87;;
7074;SDS011;3578;51.568;6.932;2022-07-29T12:00:36;14.53;;;4.23;;
7074;SDS011;3578;51.568;6.932;2022-07-29T12:03:06;5.23;;;3.90;;
7074;SDS011;3578;51.568;6.932;2022-07-29T12:05:37;5.23;;;3.03;;
7074;SDS011;3578;51.568;6.932;2022-07-29T12:08:07;3.40;;;3.10;;
7074;SDS011;3578;51.568;6.932;2022-07-29T12:10:37;7.83;;;3.53;;
7074;SDS011;3578;51.568;6.932;2022-07-29T12:13:07;3.13;;;2.90;;
7074;SDS011;3578;51.568;6.932;2022-07-29T12:15:35;6.70;;;3.20;;
7074;SDS011;3578;51.568;6.932;2022-07-29T12:18:09;4.30;;;3.00;;
7074;SDS011;3578;51.568;6.932;2022-07-29T12:20:38;5.13;;;2.73;;
7074;SDS011;3578;51.568;6.932;2022-07-29T12:23:05;9.00;;;3.23;;
7074;SDS011;3578;51.568;6.932;2022-07-29T12:25:34;2.73;;;2.50;;
7074;SDS011;3578;51.568;6.932;2022-07-29T12:28:04;2.97;;;2.57;;
7074;SDS011;3578;51.568;6.932;2022-07-29T12:30:35;4.20;;;3.00;;
7074;SDS011;3578;51.568;6.932;2022-07-29T12:33:10;4.33;;;2.77;;
7074;SDS011;3578;51.568;6.932;2022-07-29T12:35:49;4.10;;;2.60;;
7074;SDS011;3578;51.568;6.932;2022-07-29T12:38:19;4.37;;;2.80;;
7074;SDS011;3578;51.568;6.932;2022-07-29T12:40:47;3.37;;;2.50;;
7074;SDS011;3578;51.568;6.932;2022-07-29T12:43:19;4.00;;;2.67;;
7074;SDS011;3578;51.568;6.932;2022-07-29T12:45:48;3.63;;;2.70;;
7074;SDS011;3578;51.568;6.932;2022-07-29T12:48:30;5.03;;;3.60;;
7074;SDS011;3578;51.568;6.932;2022-07-29T12:51:01;6.13;;;3.10;;
7074;SDS011;3578;51.568;6.932;2022-07-29T12:53:30;4.77;;;2.80;;
7074;SDS011;3578;51.568;6.932;2022-07-29T12:55:58;6.20;;;2.80;;
7074;SDS011;3578;51.568;6.932;2022-07-29T12:58:32;9.30;;;3.13;;
7074;SDS011;3578;51.568;6.932;2022-07-29T13:01:05;2.77;;;2.00;;
7074;SDS011;3578;51.568;6.932;2022-07-29T13:03:46;6.27;;;2.43;;
7074;SDS011;3578;51.568;6.932;2022-07-29T13:06:29;3.63;;;2.70;;
7074;SDS011;3578;51.568;6.932;2022-07-29T13:09:00;3.70;;;2.70;;
7074;SDS011;3578;51.568;6.932;2022-07-29T13:11:36;3.57;;;2.30;;
7074;SDS011;3578;51.568;6.932;2022-07-29T13:14:06;5.80;;;3.33;;
7074;SDS011;3578;51.568;6.932;2022-07-29T13:16:35;4.57;;;3.10;;
7074;SDS011;3578;51.568;6.932;2022-07-29T13:19:09;6.63;;;3.33;;
7074;SDS011;3578;51.568;6.932;2022-07-29T13:21:38;6.00;;;3.33;;
7074;SDS011;3578;51.568;6.932;2022-07-29T13:24:06;4.30;;;2.90;;
7074;SDS011;3578;51.568;6.932;2022-07-29T13:26:33;4.10;;;3.07;;
7074;SDS011;3578;51.568;6.932;2022-07-29T13:29:01;11.50;;;3.20;;
7074;SDS011;3578;51.568;6.932;2022-07-29T13:31:30;4.63;;;2.57;;
7074;SDS011;3578;51.568;6.932;2022-07-29T13:33:57;2.80;;;2.60;;
7074;SDS011;3578;51.568;6.932;2022-07-29T13:36:24;3.23;;;2.93;;
7074;SDS011;3578;51.568;6.932;2022-07-29T13:38:51;5.13;;;3.30;;
7074;SDS011;3578;51.568;6.932;2022-07-29T13:41:18;4.53;;;3.40;;
7074;SDS011;3578;51.568;6.932;2022-07-29T13:43:45;4.07;;;2.93;;
7074;SDS011;3578;51.568;6.932;2022-07-29T13:46:12;4.63;;;3.33;;
7074;SDS011;3578;51.568;6.932;2022-07-29T13:48:41;4.63;;;4.23;;
7074;SDS011;3578;51.568;6.932;2022-07-29T13:51:08;6.97;;;3.90;;
7074;SDS011;3578;51.568;6.932;2022-07-29T13:53:35;5.67;;;3.77;;
7074;SDS011;3578;51.568;6.932;2022-07-29T13:56:02;3.23;;;2.97;;
7074;SDS011;3578;51.568;6.932;2022-07-29T13:58:31;5.30;;;3.60;;
7074;SDS011;3578;51.568;6.932;2022-07-29T14:00:58;6.80;;;4.00;;
7074;SDS011;3578;51.568;6.932;2022-07-29T14:03:25;4.73;;;3.47;;
7074;SDS011;3578;51.568;6.932;2022-07-29T14:05:54;5.20;;;3.90;;
7074;SDS011;3578;51.568;6.932;2022-07-29T14:08:22;5.07;;;4.10;;
7074;SDS011;3578;51.568;6.932;2022-07-29T14:10:49;5.00;;;4.10;;
7074;SDS011;3578;51.568;6.932;2022-07-29T14:13:16;8.30;;;3.97;;
7074;SDS011;3578;51.568;6.932;2022-07-29T14:15:43;7.37;;;3.57;;
7074;SDS011;3578;51.568;6.932;2022-07-29T14:18:10;6.67;;;4.40;;
7074;SDS011;3578;51.568;6.932;2022-07-29T14:20:37;5.83;;;4.27;;
7074;SDS011;3578;51.568;6.932;2022-07-29T14:23:06;4.87;;;4.43;;
7074;SDS011;3578;51.568;6.932;2022-07-29T14:25:33;5.70;;;4.53;;
7074;SDS011;3578;51.568;6.932;2022-07-29T14:27:59;3.87;;;3.57;;
7074;SDS011;3578;51.568;6.932;2022-07-29T14:30:26;6.47;;;3.87;;
7074;SDS011;3578;51.568;6.932;2022-07-29T14:32:53;5.77;;;4.47;;
7074;SDS011;3578;51.568;6.932;2022-07-29T14:35:20;5.27;;;4.57;;
7074;SDS011;3578;51.568;6.932;2022-07-29T14:37:47;7.20;;;3.87;;
7074;SDS011;3578;51.568;6.932;2022-07-29T14:40:16;7.40;;;3.77;;
7074;SDS011;3578;51.568;6.932;2022-07-29T14:42:43;5.10;;;4.30;;
7074;SDS011;3578;51.568;6.932;2022-07-29T14:45:10;5.43;;;4.40;;
7074;SDS011;3578;51.568;6.932;2022-07-29T14:47:37;5.63;;;4.30;;
7074;SDS011;3578;51.568;6.932;2022-07-29T14:50:05;6.30;;;5.23;;
7074;SDS011;3578;51.568;6.932;2022-07-29T14:52:33;7.90;;;4.20;;
7074;SDS011;3578;51.568;6.932;2022-07-29T14:55:00;9.03;;;4.47;;
7074;SDS011;3578;51.568;6.932;2022-07-29T14:57:29;5.93;;;4.13;;
7074;SDS011;3578;51.568;6.932;2022-07-29T14:59:56;9.67;;;4.80;;
7074;SDS011;3578;51.568;6.932;2022-07-29T15:02:23;5.37;;;4.30;;
7074;SDS011;3578;51.568;6.932;2022-07-29T15:04:50;5.83;;;4.37;;
7074;SDS011;3578;51.568;6.932;2022-07-29T15:07:17;5.70;;;4.07;;
7074;SDS011;3578;51.568;6.932;2022-07-29T15:09:44;7.07;;;5.20;;
7074;SDS011;3578;51.568;6.932;2022-07-29T15:12:11;10.93;;;5.00;;
7074;SDS011;3578;51.568;6.932;2022-07-29T15:14:39;8.70;;;5.20;;
7074;SDS011;3578;51.568;6.932;2022-07-29T15:17:06;4.90;;;4.43;;
7074;SDS011;3578;51.568;6.932;2022-07-29T15:19:33;5.13;;;4.63;;
7074;SDS011;3578;51.568;6.932;2022-07-29T15:22:00;5.97;;;4.77;;
7074;SDS011;3578;51.568;6.932;2022-07-29T15:24:29;5.13;;;4.37;;
7074;SDS011;3578;51.568;6.932;2022-07-29T15:26:56;6.33;;;4.53;;
7074;SDS011;3578;51.568;6.932;2022-07-29T15:29:24;10.50;;;5.17;;
7074;SDS011;3578;51.568;6.932;2022-07-29T15:31:52;5.60;;;5.10;;
7074;SDS011;3578;51.568;6.932;2022-07-29T15:34:19;9.33;;;4.23;;
7074;SDS011;3578;51.568;6.932;2022-07-29T15:36:48;5.53;;;4.30;;
7074;SDS011;3578;51.568;6.932;2022-07-29T15:39:16;11.07;;;4.77;;
7074;SDS011;3578;51.568;6.932;2022-07-29T15:41:43;7.60;;;4.40;;
7074;SDS011;3578;51.568;6.932;2022-07-29T15:44:11;6.30;;;3.83;;
7074;SDS011;3578;51.568;6.932;2022-07-29T15:46:38;3.97;;;3.63;;
7074;SDS011;3578;51.568;6.932;2022-07-29T15:49:23;8.70;;;4.00;;
7074;SDS011;3578;51.568;6.932;2022-07-29T15:51:55;6.93;;;4.00;;